createdAt,value
2023-01-04T00:00:39.258Z,95833.72
2023-01-04T00:03:08.534Z,95831.47
2023-01-04T00:05:37.717Z,95831.28
2023-01-04T00:08:08.383Z,95837.13
2023-01-04T00:10:40.561Z,95824.56
2023-01-04T00:13:09.748Z,95823.97
2023-01-04T00:15:38.992Z,95831.28
2023-01-04T00:18:08.052Z,95831.66
2023-01-04T00:20:37.248Z,95833.09
2023-01-04T00:23:07.846Z,95827.75
2023-01-04T00:25:40.088Z,95829.97
2023-01-04T00:28:12.233Z,95824.88
2023-01-04T00:30:41.646Z,95832.00
2023-01-04T00:33:10.697Z,95826.28
2023-01-04T00:35:46.131Z,95823.25
2023-01-04T00:38:17.302Z,95826.31
2023-01-04T00:40:46.294Z,95822.31
2023-01-04T00:43:15.513Z,95825.53
2023-01-04T00:45:45.376Z,95825.97
2023-01-04T00:48:14.638Z,95835.13
2023-01-04T00:50:45.690Z,95840.19
2023-01-04T00:53:17.277Z,95837.53
2023-01-04T00:55:47.451Z,95840.63
2023-01-04T00:58:16.593Z,95833.34
2023-01-04T01:00:45.740Z,95842.72
2023-01-04T01:03:15.169Z,95854.09
2023-01-04T01:05:44.340Z,95855.28
2023-01-04T01:08:28.597Z,95851.22
2023-01-04T01:11:05.355Z,95857.50
2023-01-04T01:13:35.050Z,95855.47
2023-01-04T01:16:06.702Z,95856.72
2023-01-04T01:18:36.321Z,95851.22
2023-01-04T01:21:06.987Z,95848.56
2023-01-04T01:23:36.127Z,95855.69
2023-01-04T01:26:08.531Z,95851.03
2023-01-04T01:28:38.167Z,95850.81
2023-01-04T01:31:08.984Z,95853.47
2023-01-04T01:33:38.627Z,95856.28
2023-01-04T01:36:09.168Z,95849.13
2023-01-04T01:38:39.226Z,95852.56
2023-01-04T01:41:17.400Z,95846.28
2023-01-04T01:43:52.775Z,95851.75
2023-01-04T01:46:27.934Z,95855.16
2023-01-04T01:49:02.157Z,95860.88
2023-01-04T01:51:33.369Z,95858.03
2023-01-04T01:54:08.475Z,95860.88
2023-01-04T01:56:41.262Z,95865.28
2023-01-04T01:59:12.803Z,95871.00
2023-01-04T02:01:42.360Z,95867.56
2023-01-04T02:04:13.276Z,95863.50
2023-01-04T02:06:46.216Z,95855.78
2023-01-04T02:09:15.642Z,95857.66
2023-01-04T02:11:46.241Z,95857.22
2023-01-04T02:14:29.363Z,95850.56
2023-01-04T02:17:11.119Z,95844.22
2023-01-04T02:20:12.183Z,95841.63
2023-01-04T02:23:06.433Z,95835.75
2023-01-04T02:26:05.876Z,95831.66
2023-01-04T02:28:54.682Z,95835.72
2023-01-04T02:31:37.413Z,95836.34
2023-01-04T02:34:15.277Z,95830.84
2023-01-04T02:36:53.625Z,95838.94
2023-01-04T02:39:35.251Z,95828.97
2023-01-04T02:42:15.555Z,95831.22
2023-01-04T02:44:53.829Z,95830.19
2023-01-04T02:47:54.451Z,95828.34
2023-01-04T02:50:36.076Z,95837.09
2023-01-04T02:53:12.072Z,95835.88
2023-01-04T02:55:49.937Z,95836.06
2023-01-04T02:58:37.820Z,95826.28
2023-01-04T03:01:34.116Z,95839.72
2023-01-04T03:04:39.659Z,95824.28
2023-01-04T03:07:14.780Z,95834.19
2023-01-04T03:09:51.113Z,95832.81
2023-01-04T03:12:33.877Z,95833.38
2023-01-04T03:15:11.311Z,95837.47
2023-01-04T03:17:45.240Z,95829.34
2023-01-04T03:20:18.687Z,95837.06
2023-01-04T03:23:09.558Z,95832.00
2023-01-04T03:25:59.792Z,95840.72
2023-01-04T03:28:50.741Z,95843.16
2023-01-04T03:31:44.221Z,95846.63
2023-01-04T03:34:31.339Z,95849.50
2023-01-04T03:37:09.430Z,95850.31
2023-01-04T03:40:05.532Z,95851.91
2023-01-04T03:43:01.425Z,95852.28
2023-01-04T03:45:51.909Z,95853.72
2023-01-04T03:48:34.858Z,95848.69
2023-01-04T03:51:14.998Z,95857.59
2023-01-04T03:53:56.817Z,95849.06
2023-01-04T03:56:28.137Z,95854.38
2023-01-04T03:58:57.474Z,95849.69
2023-01-04T04:01:28.881Z,95858.25
2023-01-04T04:04:15.729Z,95857.84
2023-01-04T04:07:02.171Z,95855.63
2023-01-04T04:09:32.877Z,95853.81
2023-01-04T04:12:01.982Z,95859.69
2023-01-04T04:14:31.319Z,95860.50
2023-01-04T04:17:00.544Z,95859.91
2023-01-04T04:19:29.850Z,95862.19
2023-01-04T04:21:59.025Z,95875.19
2023-01-04T04:24:28.743Z,95867.28
2023-01-04T04:26:59.272Z,95867.47
2023-01-04T04:29:28.555Z,95872.66
2023-01-04T04:31:57.794Z,95877.75
2023-01-04T04:34:27.039Z,95878.34
2023-01-04T04:36:56.327Z,95883.59
2023-01-04T04:39:25.575Z,95879.28
2023-01-04T04:41:53.653Z,95887.25
2023-01-04T04:44:24.527Z,95877.28
2023-01-04T04:46:53.748Z,95872.38
2023-01-04T04:49:23.000Z,95874.25
2023-01-04T04:51:52.559Z,95873.63
2023-01-04T04:54:23.369Z,95872.63
2023-01-04T04:56:52.835Z,95869.78
2023-01-04T04:59:22.136Z,95871.41
2023-01-04T05:01:53.026Z,95875.28
2023-01-04T05:04:22.219Z,95874.69
2023-01-04T05:06:53.270Z,95876.88
2023-01-04T05:09:22.287Z,95881.16
2023-01-04T05:12:08.731Z,95882.97
2023-01-04T05:14:37.934Z,95880.53
2023-01-04T05:17:08.814Z,95881.97
2023-01-04T05:19:37.843Z,95887.38
2023-01-04T05:22:07.105Z,95890.50
2023-01-04T05:24:36.196Z,95890.47
2023-01-04T05:27:05.535Z,95893.34
2023-01-04T05:29:52.010Z,95892.91
2023-01-04T05:32:31.562Z,95893.91
2023-01-04T05:35:00.647Z,95897.38
2023-01-04T05:37:29.831Z,95901.88
2023-01-04T05:39:59.357Z,95902.47
2023-01-04T05:42:28.725Z,95901.81
2023-01-04T05:44:59.583Z,95910.38
2023-01-04T05:47:30.974Z,95906.34
2023-01-04T05:50:00.182Z,95918.47
2023-01-04T05:52:29.894Z,95907.09
2023-01-04T05:54:59.128Z,95917.91
2023-01-04T05:57:34.448Z,95905.09
2023-01-04T06:00:11.452Z,95922.75
2023-01-04T06:02:46.073Z,95909.00
2023-01-04T06:05:15.506Z,95911.81
2023-01-04T06:07:44.782Z,95914.84
2023-01-04T06:10:14.944Z,95914.03
2023-01-04T06:12:44.311Z,95925.63
2023-01-04T06:15:13.832Z,95928.84
2023-01-04T06:17:43.104Z,95939.00
2023-01-04T06:20:14.054Z,95933.09
2023-01-04T06:22:43.409Z,95936.47
2023-01-04T06:25:12.726Z,95941.63
2023-01-04T06:27:42.727Z,95939.22
2023-01-04T06:30:12.706Z,95930.34
2023-01-04T06:32:42.001Z,95938.81
2023-01-04T06:35:12.934Z,95938.19
2023-01-04T06:37:42.273Z,95938.00
2023-01-04T06:40:12.481Z,95939.22
2023-01-04T06:42:47.671Z,95937.63
2023-01-04T06:45:18.305Z,95928.25
2023-01-04T06:47:48.214Z,95928.63
2023-01-04T06:50:18.997Z,95944.47
2023-01-04T06:52:48.216Z,95939.19
2023-01-04T06:55:17.433Z,95941.75
2023-01-04T06:57:46.537Z,95943.22
2023-01-04T07:00:17.011Z,95945.03
2023-01-04T07:03:13.705Z,95948.31
2023-01-04T07:05:37.117Z,95950.75
2023-01-04T07:08:08.476Z,95951.00
2023-01-04T07:10:37.974Z,95958.69
2023-01-04T07:13:08.208Z,95959.91
2023-01-04T07:15:40.601Z,95957.88
2023-01-04T07:18:11.236Z,95964.59
2023-01-04T07:20:41.876Z,95959.31
2023-01-04T07:23:10.951Z,95962.94
2023-01-04T07:25:40.003Z,95957.22
2023-01-04T07:28:10.530Z,95973.03
2023-01-04T07:30:39.732Z,95965.94
2023-01-04T07:33:19.214Z,95966.31
2023-01-04T07:35:50.059Z,95968.41
2023-01-04T07:38:19.163Z,95967.75
2023-01-04T07:40:56.996Z,95962.03
2023-01-04T07:43:28.429Z,95973.44
2023-01-04T07:45:58.152Z,95965.56
2023-01-04T07:48:29.800Z,95966.41
2023-01-04T07:51:00.554Z,95973.75
2023-01-04T07:53:29.976Z,95976.41
2023-01-04T07:56:00.004Z,95982.97
2023-01-04T07:58:33.980Z,95987.25
2023-01-04T08:01:08.621Z,95992.88
2023-01-04T08:03:37.950Z,95992.88
2023-01-04T08:06:10.088Z,95995.69
2023-01-04T08:08:39.767Z,95983.38
2023-01-04T08:11:11.394Z,95985.78
2023-01-04T08:13:41.345Z,95986.63
2023-01-04T08:16:19.644Z,96004.81
2023-01-04T08:18:49.006Z,95995.53
2023-01-04T08:21:19.818Z,95995.34
2023-01-04T08:23:49.321Z,95986.03
2023-01-04T08:26:19.348Z,95995.34
2023-01-04T08:28:49.039Z,95996.16
2023-01-04T08:31:20.369Z,95997.13
2023-01-04T08:33:50.444Z,96001.63
2023-01-04T08:36:27.195Z,96008.19
2023-01-04T08:39:01.109Z,96003.69
2023-01-04T08:44:21.696Z,96001.88
2023-01-04T08:46:51.885Z,95998.66
2023-01-04T08:49:22.478Z,96003.81
2023-01-04T08:51:53.599Z,96005.59
2023-01-04T08:54:23.393Z,95998.16
2023-01-04T08:56:52.681Z,96002.97
2023-01-04T08:59:22.079Z,96004.41
2023-01-04T09:01:51.377Z,96011.91
2023-01-04T09:04:21.047Z,95994.25
2023-01-04T09:06:50.202Z,95996.69
2023-01-04T09:09:20.993Z,95999.34
2023-01-04T09:11:50.189Z,96005.09
2023-01-04T09:14:19.295Z,95997.19
2023-01-04T09:16:48.544Z,96003.28
2023-01-04T09:19:21.839Z,96001.78
2023-01-04T09:21:51.766Z,96007.53
2023-01-04T09:24:22.932Z,96005.53
2023-01-04T09:26:52.281Z,96001.25
2023-01-04T09:29:22.226Z,95995.22
2023-01-04T09:31:51.477Z,96006.19
2023-01-04T09:34:20.951Z,96002.31
2023-01-04T09:36:50.887Z,96000.03
2023-01-04T09:39:23.780Z,95989.59
2023-01-04T09:41:57.178Z,95990.97
2023-01-04T09:45:12.100Z,95974.88
2023-01-04T09:47:31.924Z,95982.03
2023-01-04T09:50:07.795Z,95983.06
2023-01-04T09:52:45.599Z,95984.72
2023-01-04T09:55:39.202Z,95981.78
2023-01-04T09:58:29.661Z,95978.31
2023-01-04T10:01:05.036Z,95982.16
2023-01-04T10:03:36.612Z,95976.34
2023-01-04T10:06:09.509Z,95979.84
2023-01-04T10:08:38.831Z,95978.66
2023-01-04T10:11:28.978Z,95974.78
2023-01-04T10:14:16.323Z,95976.16
2023-01-04T10:17:12.786Z,95965.19
2023-01-04T10:22:59.463Z,95963.56
2023-01-04T10:25:39.310Z,95961.69
2023-01-04T10:28:20.666Z,95965.50
2023-01-04T10:30:59.002Z,95963.84
2023-01-04T10:33:36.488Z,95973.41
2023-01-04T10:36:17.393Z,95971.22
2023-01-04T10:38:46.911Z,95966.19
2023-01-04T10:41:27.311Z,95959.34
2023-01-04T10:44:12.122Z,95964.31
2023-01-04T10:46:51.845Z,95958.47
2023-01-04T10:49:31.389Z,95965.19
2023-01-04T10:52:06.973Z,95968.81
2023-01-04T10:54:44.155Z,95957.66
2023-01-04T10:57:18.706Z,95957.44
2023-01-04T10:59:55.017Z,95950.53
2023-01-04T11:02:30.528Z,95949.94
2023-01-04T11:05:04.469Z,95944.69
2023-01-04T11:07:40.775Z,95948.41
2023-01-04T11:10:16.639Z,95941.16
2023-01-04T11:12:46.306Z,95940.94
2023-01-04T11:15:17.104Z,95932.41
2023-01-04T11:17:47.769Z,95942.19
2023-01-04T11:20:17.360Z,95946.25
2023-01-04T11:22:54.875Z,95947.25
2023-01-04T11:25:40.735Z,95942.00
2023-01-04T11:28:17.819Z,95939.53
2023-01-04T11:30:59.778Z,95936.09
2023-01-04T11:33:29.582Z,95930.38
2023-01-04T11:36:03.169Z,95932.84
2023-01-04T11:38:32.558Z,95931.81
2023-01-04T11:41:06.071Z,95930.16
2023-01-04T11:43:37.077Z,95916.91
2023-01-04T11:46:22.892Z,95918.50
2023-01-04T11:48:53.415Z,95920.31
2023-01-04T11:51:37.804Z,95918.72
2023-01-04T11:54:19.295Z,95922.38
2023-01-04T11:57:10.699Z,95916.53
2023-01-04T11:59:40.948Z,95917.75
2023-01-04T12:02:58.733Z,95920.81
2023-01-04T12:05:28.318Z,95906.13
2023-01-04T12:07:58.957Z,95909.19
2023-01-04T12:10:29.828Z,95907.94
2023-01-04T12:13:02.035Z,95905.94
2023-01-04T12:15:40.502Z,95907.13
2023-01-04T12:18:17.624Z,95901.47
2023-01-04T12:20:47.377Z,95894.91
2023-01-04T12:23:16.798Z,95901.78
2023-01-04T12:25:51.475Z,95905.66
2023-01-04T12:28:40.087Z,95893.41
2023-01-04T12:31:28.524Z,95895.22
2023-01-04T12:34:00.921Z,95903.91
2023-01-04T12:37:01.368Z,95897.84
2023-01-04T12:39:42.284Z,95901.06
2023-01-04T12:42:15.875Z,95891.69
2023-01-04T12:45:19.643Z,95890.56
2023-01-04T12:48:08.216Z,95884.03
2023-01-04T12:51:31.655Z,95886.88
2023-01-04T12:54:06.037Z,95895.72
2023-01-04T12:57:11.673Z,95897.03
2023-01-04T12:59:42.033Z,95894.25
2023-01-04T13:02:23.788Z,95889.41
2023-01-04T13:05:17.005Z,95893.94
2023-01-04T13:07:49.048Z,95891.09
2023-01-04T13:10:35.559Z,95892.97
2023-01-04T13:13:20.882Z,95894.41
2023-01-04T13:16:02.615Z,95900.91
2023-01-04T13:18:38.279Z,95902.31
2023-01-04T13:21:14.444Z,95904.97
2023-01-04T13:23:50.209Z,95901.13
2023-01-04T13:26:34.819Z,95897.22
2023-01-04T13:29:14.143Z,95906.19
2023-01-04T13:31:53.273Z,95904.56
2023-01-04T13:34:26.906Z,95900.06
2023-01-04T13:37:00.516Z,95896.84
2023-01-04T13:39:30.605Z,95888.28
2023-01-04T13:42:01.659Z,95900.66
2023-01-04T13:45:20.844Z,95889.88
2023-01-04T13:47:54.488Z,95878.69
2023-01-04T13:50:30.331Z,95889.06
2023-01-04T13:53:06.938Z,95889.22
2023-01-04T13:55:38.770Z,95882.16
2023-01-04T13:58:19.166Z,95892.31
2023-01-04T14:00:52.613Z,95892.91
2023-01-04T14:03:33.652Z,95885.59
2023-01-04T14:06:19.055Z,95888.84
2023-01-04T14:08:54.376Z,95894.50
2023-01-04T14:11:44.437Z,95885.56
2023-01-04T14:14:37.374Z,95899.78
2023-01-04T14:17:18.154Z,95890.03
2023-01-04T14:19:50.927Z,95895.13
2023-01-04T14:22:40.657Z,95888.44
2023-01-04T14:25:45.194Z,95901.69
2023-01-04T14:28:28.700Z,95891.91
2023-01-04T14:31:14.724Z,95895.97
2023-01-04T14:33:46.979Z,95899.63
2023-01-04T14:36:20.795Z,95894.34
2023-01-04T14:38:58.549Z,95899.63
2023-01-04T14:41:32.712Z,95902.69
2023-01-04T14:44:11.145Z,95896.59
2023-01-04T14:46:43.925Z,95895.97
2023-01-04T14:49:13.707Z,95898.22
2023-01-04T14:51:45.874Z,95900.22
2023-01-04T14:54:24.063Z,95897.38
2023-01-04T14:56:54.995Z,95895.38
2023-01-04T14:59:25.231Z,95901.44
2023-01-04T15:01:57.724Z,95903.06
2023-01-04T15:04:28.435Z,95895.16
2023-01-04T15:06:59.806Z,95901.63
2023-01-04T15:09:30.991Z,95903.69
2023-01-04T15:12:00.650Z,95904.72
2023-01-04T15:14:30.195Z,95909.59
2023-01-04T15:17:01.115Z,95908.97
2023-01-04T15:19:37.277Z,95915.47
2023-01-04T15:22:07.260Z,95912.78
2023-01-04T15:24:36.866Z,95915.81
2023-01-04T15:27:12.724Z,95909.19
2023-01-04T15:29:42.141Z,95918.19
2023-01-04T15:32:13.065Z,95922.28
2023-01-04T15:34:46.869Z,95923.81
2023-01-04T15:37:21.935Z,95928.84
2023-01-04T15:40:22.525Z,95920.09
2023-01-04T15:43:00.302Z,95916.47
2023-01-04T15:45:31.588Z,95923.81
2023-01-04T15:48:04.532Z,95922.81
2023-01-04T15:50:37.379Z,95927.69
2023-01-04T15:53:07.583Z,95928.09
2023-01-04T15:55:38.574Z,95933.19
2023-01-04T15:58:08.895Z,95932.63
2023-01-04T16:00:39.667Z,95928.56
2023-01-04T16:03:10.634Z,95923.63
2023-01-04T16:05:40.082Z,95926.88
2023-01-04T16:08:09.357Z,95936.81
2023-01-04T16:10:38.990Z,95925.88
2023-01-04T16:13:08.156Z,95933.63
2023-01-04T16:15:39.838Z,95922.44
2023-01-04T16:18:10.805Z,95926.69
2023-01-04T16:20:42.920Z,95925.66
2023-01-04T16:23:12.382Z,95922.44
2023-01-04T16:26:08.480Z,95923.44
2023-01-04T16:28:38.555Z,95920.81
2023-01-04T16:31:10.078Z,95917.13
2023-01-04T16:33:41.016Z,95921.59
2023-01-04T16:36:13.609Z,95917.53
2023-01-04T16:38:46.708Z,95916.50
2023-01-04T16:41:17.003Z,95921.75
2023-01-04T16:43:48.142Z,95917.47
2023-01-04T16:46:24.302Z,95905.72
2023-01-04T16:48:56.736Z,95907.94
2023-01-04T16:51:28.305Z,95907.91
2023-01-04T16:53:57.704Z,95911.56
2023-01-04T16:56:28.537Z,95916.22
2023-01-04T16:58:57.801Z,95912.34
2023-01-04T17:01:28.636Z,95924.09
2023-01-04T17:04:01.459Z,95921.19
2023-01-04T17:06:32.615Z,95920.84
2023-01-04T17:09:03.598Z,95922.03
2023-01-04T17:14:25.519Z,95927.09
2023-01-04T17:16:55.636Z,95922.22
2023-01-04T17:19:26.604Z,95925.03
2023-01-04T17:21:55.742Z,95928.09
2023-01-04T17:24:25.022Z,95924.47
2023-01-04T17:26:54.488Z,95926.84
2023-01-04T17:29:24.329Z,95923.84
2023-01-04T17:31:53.774Z,95928.69
2023-01-04T17:34:23.602Z,95934.75
2023-01-04T17:36:54.456Z,95936.22
2023-01-04T17:39:23.931Z,95929.09
2023-01-04T17:41:56.444Z,95933.75
2023-01-04T17:44:25.783Z,95931.75
2023-01-04T17:46:55.633Z,95937.19
2023-01-04T17:49:30.897Z,95933.66
2023-01-04T17:52:02.578Z,95927.22
2023-01-04T17:54:31.948Z,95932.03
2023-01-04T17:57:01.273Z,95928.00
2023-01-04T17:59:30.952Z,95932.00
2023-01-04T18:02:00.490Z,95928.19
2023-01-04T18:04:30.136Z,95940.09
2023-01-04T18:06:59.457Z,95937.94
2023-01-04T18:09:30.423Z,95930.03
2023-01-04T18:11:59.726Z,95930.00
2023-01-04T18:14:29.363Z,95921.03
2023-01-04T18:16:59.541Z,95929.19
2023-01-04T18:19:31.709Z,95927.94
2023-01-04T18:22:01.335Z,95927.78
2023-01-04T18:24:36.608Z,95933.66
2023-01-04T18:27:25.515Z,95935.94
2023-01-04T18:29:56.876Z,95930.91
2023-01-04T18:32:27.769Z,95941.44
2023-01-04T18:34:57.617Z,95940.94
2023-01-04T18:37:27.045Z,95935.56
2023-01-04T18:39:58.082Z,95939.84
2023-01-04T18:42:27.446Z,95936.84
2023-01-04T18:44:57.684Z,95932.91
2023-01-04T18:47:28.408Z,95927.41
2023-01-04T18:49:57.841Z,95929.22
2023-01-04T18:52:27.293Z,95937.72
2023-01-04T18:54:58.088Z,95934.69
2023-01-04T18:57:27.970Z,95934.47
2023-01-04T18:59:57.524Z,95927.38
2023-01-04T19:02:27.226Z,95934.91
2023-01-04T19:04:57.078Z,95929.22
2023-01-04T19:07:26.692Z,95932.25
2023-01-04T19:09:57.855Z,95930.38
2023-01-04T19:12:28.035Z,95922.63
2023-01-04T19:14:57.381Z,95924.28
2023-01-04T19:17:27.850Z,95920.41
2023-01-04T19:19:57.225Z,95915.06
2023-01-04T19:22:26.594Z,95920.16
2023-01-04T19:24:56.219Z,95913.84
2023-01-04T19:27:27.243Z,95923.91
2023-01-04T19:29:57.780Z,95911.66
2023-01-04T19:32:33.204Z,95918.97
2023-01-04T19:35:03.604Z,95911.72
2023-01-04T19:37:33.956Z,95910.13
2023-01-04T19:40:03.916Z,95918.13
2023-01-04T19:42:34.840Z,95906.03
2023-01-04T19:45:04.276Z,95903.69
2023-01-04T19:47:33.846Z,95903.31
2023-01-04T19:50:03.258Z,95896.03
2023-01-04T19:52:34.688Z,95897.84
2023-01-04T19:55:04.583Z,95900.41
2023-01-04T19:57:35.769Z,95897.34
2023-01-04T20:00:06.389Z,95899.34
2023-01-04T20:02:36.286Z,95897.53
2023-01-04T20:05:06.822Z,95887.22
2023-01-04T20:07:36.277Z,95885.97
2023-01-04T20:10:12.096Z,95886.38
2023-01-04T20:12:45.476Z,95881.13
2023-01-04T20:15:15.173Z,95877.69
2023-01-04T20:17:44.406Z,95873.09
2023-01-04T20:20:13.965Z,95872.47
2023-01-04T20:22:43.401Z,95874.47
2023-01-04T20:25:12.800Z,95873.28
2023-01-04T20:27:43.763Z,95867.75
2023-01-04T20:30:13.914Z,95869.00
2023-01-04T20:32:43.344Z,95868.19
2023-01-04T20:35:13.739Z,95865.53
2023-01-04T20:37:43.011Z,95860.25
2023-01-04T20:40:13.308Z,95858.47
2023-01-04T20:43:01.712Z,95851.56
2023-01-04T20:45:31.372Z,95858.13
2023-01-04T20:48:00.547Z,95858.50
2023-01-04T20:50:30.584Z,95866.00
2023-01-04T20:52:59.997Z,95861.84
2023-01-04T20:55:29.425Z,95865.25
2023-01-04T20:58:00.314Z,95877.78
2023-01-04T21:00:30.030Z,95863.53
2023-01-04T21:02:59.558Z,95858.47
2023-01-04T21:05:29.087Z,95860.72
2023-01-04T21:07:58.589Z,95857.38
2023-01-04T21:10:27.894Z,95848.56
2023-01-04T21:12:57.086Z,95853.56
2023-01-04T21:15:28.307Z,95854.00
2023-01-04T21:17:57.678Z,95853.56
2023-01-04T21:20:27.435Z,95848.25
2023-01-04T21:22:57.009Z,95842.91
2023-01-04T21:25:26.330Z,95843.91
2023-01-04T21:27:55.883Z,95840.91
2023-01-04T21:30:26.727Z,95835.28
2023-01-04T21:33:01.410Z,95832.69
2023-01-04T21:35:31.686Z,95840.53
2023-01-04T21:38:02.409Z,95837.97
2023-01-04T21:40:32.084Z,95834.28
2023-01-04T21:43:01.784Z,95826.91
2023-01-04T21:45:32.824Z,95826.31
2023-01-04T21:48:02.125Z,95827.56
2023-01-04T21:50:31.423Z,95831.75
2023-01-04T21:53:00.833Z,95827.50
2023-01-04T21:55:34.545Z,95822.47
2023-01-04T21:58:04.677Z,95815.56
2023-01-04T22:00:35.344Z,95812.00
2023-01-04T22:03:12.021Z,95820.13
2023-01-04T22:05:41.202Z,95814.91
2023-01-04T22:08:10.554Z,95804.78
2023-01-04T22:10:39.819Z,95801.59
2023-01-04T22:13:09.909Z,95794.13
2023-01-04T22:15:41.821Z,95803.88
2023-01-04T22:18:11.041Z,95804.72
2023-01-04T22:20:40.227Z,95794.78
2023-01-04T22:23:09.493Z,95796.03
2023-01-04T22:25:39.016Z,95792.75
2023-01-04T22:28:08.371Z,95786.88
2023-01-04T22:30:43.303Z,95780.81
2023-01-04T22:33:12.639Z,95776.34
2023-01-04T22:35:41.818Z,95778.81
2023-01-04T22:38:11.032Z,95772.91
2023-01-04T22:40:40.620Z,95773.69
2023-01-04T22:43:10.185Z,95769.25
2023-01-04T22:45:39.292Z,95773.50
2023-01-04T22:48:09.945Z,95768.00
2023-01-04T22:50:40.204Z,95755.63
2023-01-04T22:53:09.466Z,95757.84
2023-01-04T22:56:17.210Z,95760.09
2023-01-04T22:58:31.361Z,95756.25
2023-01-04T23:01:00.545Z,95756.00
2023-01-04T23:03:31.254Z,95752.63
2023-01-04T23:06:00.721Z,95754.63
2023-01-04T23:08:29.973Z,95750.53
2023-01-04T23:10:59.346Z,95744.06
2023-01-04T23:13:28.420Z,95736.38
2023-01-04T23:15:57.603Z,95746.53
2023-01-04T23:18:26.676Z,95734.94
2023-01-04T23:20:57.362Z,95728.66
2023-01-04T23:23:26.548Z,95735.56
2023-01-04T23:25:55.803Z,95729.28
2023-01-04T23:28:25.945Z,95729.84
2023-01-04T23:30:55.097Z,95728.28
2023-01-04T23:33:24.311Z,95732.09
2023-01-04T23:35:53.462Z,95723.56
2023-01-04T23:38:23.937Z,95718.50
2023-01-04T23:40:55.356Z,95721.31
2023-01-04T23:43:24.491Z,95704.44
2023-01-04T23:45:53.579Z,95699.59
2023-01-04T23:48:22.745Z,95692.06
2023-01-04T23:50:58.817Z,95698.09
2023-01-04T23:53:29.493Z,95698.53
2023-01-04T23:56:04.913Z,95698.09
2023-01-04T23:58:35.002Z,95695.28
